createdAt,value
2022-08-04T00:01:17.784Z,100703.19
2022-08-04T00:04:17.375Z,100703.59
2022-08-04T00:07:00.052Z,100701.16
2022-08-04T00:09:53.761Z,100692.53
2022-08-04T00:12:31.210Z,100696.13
2022-08-04T00:15:00.135Z,100692.41
2022-08-04T00:17:32.234Z,100699.59
2022-08-04T00:20:02.130Z,100691.78
2022-08-04T00:22:30.649Z,100683.28
2022-08-04T00:24:58.434Z,100686.19
2022-08-04T00:27:25.087Z,100681.66
2022-08-04T00:29:53.142Z,100681.63
2022-08-04T00:32:34.530Z,100682.53
2022-08-04T00:35:01.994Z,100684.38
2022-08-04T00:37:28.728Z,100686.13
2022-08-04T00:39:56.941Z,100687.00
2022-08-04T00:42:34.696Z,100686.81
2022-08-04T00:45:04.242Z,100677.53
2022-08-04T00:48:04.831Z,100685.13
2022-08-04T00:51:05.501Z,100692.81
2022-08-04T00:53:49.935Z,100687.63
2022-08-04T00:56:57.774Z,100692.28
2022-08-04T00:59:36.454Z,100687.19
2022-08-04T01:02:08.873Z,100689.78
2022-08-04T01:04:53.635Z,100683.38
2022-08-04T01:07:57.277Z,100676.09
2022-08-04T01:10:45.535Z,100686.69
2022-08-04T01:13:26.600Z,100677.75
2022-08-04T01:16:05.227Z,100680.34
2022-08-04T01:19:24.614Z,100680.34
2022-08-04T01:22:15.108Z,100671.56
2022-08-04T01:25:09.590Z,100672.63
2022-08-04T01:27:49.291Z,100682.63
2022-08-04T01:30:16.646Z,100676.22
2022-08-04T01:33:03.341Z,100667.56
2022-08-04T01:35:46.579Z,100663.00
2022-08-04T01:38:33.660Z,100676.22
2022-08-04T01:41:04.613Z,100665.72
2022-08-04T01:43:33.690Z,100669.19
2022-08-04T01:46:03.482Z,100664.75
2022-08-04T01:48:30.393Z,100663.00
2022-08-04T01:50:59.045Z,100658.31
2022-08-04T01:53:32.498Z,100659.06
2022-08-04T01:56:01.552Z,100656.31
2022-08-04T01:58:31.079Z,100664.09
2022-08-04T02:01:08.628Z,100664.00
2022-08-04T02:04:19.398Z,100666.72
2022-08-04T02:06:42.691Z,100656.41
2022-08-04T02:09:29.956Z,100643.25
2022-08-04T02:12:27.236Z,100645.09
2022-08-04T02:15:02.326Z,100625.09
2022-08-04T02:17:50.841Z,100634.72
2022-08-04T02:20:29.058Z,100637.38
2022-08-04T02:23:00.482Z,100629.56
2022-08-04T02:25:29.468Z,100621.16
2022-08-04T02:28:08.071Z,100628.38
2022-08-04T02:30:58.522Z,100631.13
2022-08-04T02:33:35.947Z,100616.19
2022-08-04T02:36:05.390Z,100609.91
2022-08-04T02:38:47.591Z,100616.81
2022-08-04T02:41:16.413Z,100614.88
2022-08-04T02:43:51.435Z,100608.94
2022-08-04T02:46:21.725Z,100599.38
2022-08-04T02:48:50.088Z,100606.97
2022-08-04T02:51:21.585Z,100605.59
2022-08-04T02:53:52.325Z,100603.97
2022-08-04T02:56:20.259Z,100599.41
2022-08-04T02:58:51.893Z,100598.91
2022-08-04T03:01:18.665Z,100587.03
2022-08-04T03:03:45.138Z,100593.00
2022-08-04T03:06:11.618Z,100584.13
2022-08-04T03:09:18.331Z,100584.72
2022-08-04T03:12:12.627Z,100588.66
2022-08-04T03:14:57.428Z,100585.72
2022-08-04T03:18:10.452Z,100583.31
2022-08-04T03:20:54.219Z,100585.78
2022-08-04T03:23:58.455Z,100585.84
2022-08-04T03:26:56.978Z,100562.50
2022-08-04T03:29:55.163Z,100582.34
2022-08-04T03:32:32.999Z,100578.84
2022-08-04T03:35:13.567Z,100581.38
2022-08-04T03:38:07.555Z,100571.56
2022-08-04T03:41:51.667Z,100575.06
2022-08-04T03:44:21.847Z,100567.50
2022-08-04T03:47:23.331Z,100565.00
2022-08-04T03:50:02.126Z,100567.38
2022-08-04T03:52:58.704Z,100573.28
2022-08-04T03:55:40.029Z,100568.97
2022-08-04T03:58:09.387Z,100568.19
2022-08-04T04:00:54.174Z,100568.53
2022-08-04T04:03:56.348Z,100568.94
2022-08-04T04:06:53.703Z,100562.56
2022-08-04T04:09:57.717Z,100561.69
2022-08-04T04:12:51.182Z,100563.88
2022-08-04T04:15:34.478Z,100562.13
2022-08-04T04:18:21.157Z,100562.84
2022-08-04T04:21:09.465Z,100567.44
2022-08-04T04:23:54.492Z,100559.34
2022-08-04T04:26:48.929Z,100561.25
2022-08-04T04:29:37.280Z,100566.69
2022-08-04T04:32:22.007Z,100560.44
2022-08-04T04:35:07.249Z,100561.94
2022-08-04T04:37:48.110Z,100559.22
2022-08-04T04:40:32.480Z,100568.09
2022-08-04T04:43:51.820Z,100555.88
2022-08-04T04:46:43.743Z,100561.44
2022-08-04T04:49:33.483Z,100557.78
2022-08-04T04:52:15.145Z,100561.25
2022-08-04T04:55:02.651Z,100561.00
2022-08-04T04:57:54.329Z,100553.94
2022-08-04T05:00:25.160Z,100553.50
2022-08-04T05:03:23.227Z,100552.34
2022-08-04T05:06:25.042Z,100556.72
2022-08-04T05:09:12.473Z,100549.47
2022-08-04T05:11:56.937Z,100547.63
2022-08-04T05:14:42.110Z,100553.03
2022-08-04T05:17:27.033Z,100554.75
2022-08-04T05:20:27.646Z,100551.16
2022-08-04T05:22:58.319Z,100545.09
2022-08-04T05:25:32.899Z,100551.97
2022-08-04T05:28:12.219Z,100545.72
2022-08-04T05:30:48.286Z,100546.56
2022-08-04T05:33:42.640Z,100536.72
2022-08-04T05:36:18.981Z,100540.13
2022-08-04T05:38:55.646Z,100542.44
2022-08-04T05:41:22.929Z,100548.44
2022-08-04T05:43:59.705Z,100543.19
2022-08-04T05:46:29.145Z,100537.75
2022-08-04T05:48:56.137Z,100539.09
2022-08-04T05:51:23.475Z,100544.41
2022-08-04T05:53:51.754Z,100538.94
2022-08-04T05:56:19.305Z,100545.16
2022-08-04T05:58:46.459Z,100545.44
2022-08-04T06:01:14.801Z,100544.00
2022-08-04T06:03:43.791Z,100547.81
2022-08-04T06:06:11.519Z,100542.47
2022-08-04T06:08:38.076Z,100539.38
2022-08-04T06:11:07.987Z,100544.91
2022-08-04T06:13:49.730Z,100539.94
2022-08-04T06:16:29.106Z,100545.13
2022-08-04T06:20:02.462Z,100533.50
2022-08-04T06:21:49.979Z,100533.56
2022-08-04T06:24:20.975Z,100537.41
2022-08-04T06:26:50.297Z,100540.00
2022-08-04T06:29:26.581Z,100523.31
2022-08-04T06:32:31.823Z,100532.09
2022-08-04T06:34:45.523Z,100529.38
2022-08-04T06:37:12.316Z,100526.84
2022-08-04T06:40:01.750Z,100542.88
2022-08-04T06:42:31.377Z,100535.59
2022-08-04T06:44:59.190Z,100528.69
2022-08-04T06:47:26.603Z,100538.66
2022-08-04T06:51:25.474Z,100535.50
2022-08-04T06:52:44.650Z,100534.13
2022-08-04T06:55:11.554Z,100536.75
2022-08-04T06:57:40.369Z,100535.09
2022-08-04T07:00:14.591Z,100541.41
2022-08-04T07:02:53.180Z,100541.22
2022-08-04T07:05:21.274Z,100532.34
2022-08-04T07:07:56.796Z,100517.13
2022-08-04T07:10:28.784Z,100528.06
2022-08-04T07:12:57.378Z,100512.72
2022-08-04T07:15:24.986Z,100523.38
2022-08-04T07:17:52.950Z,100527.41
2022-08-04T07:20:33.823Z,100524.94
2022-08-04T07:23:06.484Z,100517.44
2022-08-04T07:26:12.189Z,100525.78
2022-08-04T07:28:37.739Z,100526.97
2022-08-04T07:31:07.331Z,100524.88
2022-08-04T07:33:40.510Z,100528.53
2022-08-04T07:36:11.742Z,100531.13
2022-08-04T07:38:48.409Z,100527.16
2022-08-04T07:41:38.543Z,100534.81
2022-08-04T07:44:05.691Z,100517.69
2022-08-04T07:46:32.519Z,100520.63
2022-08-04T07:49:03.002Z,100515.78
2022-08-04T07:51:30.898Z,100523.09
2022-08-04T07:53:58.895Z,100525.50
2022-08-04T07:56:26.784Z,100523.78
2022-08-04T07:58:54.082Z,100520.22
2022-08-04T08:01:21.643Z,100519.19
2022-08-04T08:03:49.642Z,100526.06
2022-08-04T08:06:32.047Z,100522.53
2022-08-04T08:09:13.039Z,100522.81
2022-08-04T08:12:37.863Z,100510.19
2022-08-04T08:14:33.402Z,100522.53
2022-08-04T08:17:02.412Z,100522.81
2022-08-04T08:19:30.643Z,100514.81
2022-08-04T08:21:59.060Z,100513.09
2022-08-04T08:24:28.312Z,100521.19
2022-08-04T08:26:55.982Z,100518.25
2022-08-04T08:29:24.155Z,100515.78
2022-08-04T08:31:57.188Z,100516.34
2022-08-04T08:34:28.809Z,100519.63
2022-08-04T08:37:04.886Z,100510.66
2022-08-04T08:39:40.072Z,100502.44
2022-08-04T08:42:31.420Z,100509.25
2022-08-04T08:45:17.960Z,100513.66
2022-08-04T08:48:05.390Z,100513.41
2022-08-04T08:51:10.089Z,100511.72
2022-08-04T08:53:57.788Z,100512.84
2022-08-04T08:57:10.174Z,100514.28
2022-08-04T09:00:01.541Z,100511.44
2022-08-04T09:02:46.312Z,100509.16
2022-08-04T09:05:34.697Z,100509.88
2022-08-04T09:08:32.121Z,100510.84
2022-08-04T09:11:15.637Z,100510.84
2022-08-04T09:13:50.061Z,100498.44
2022-08-04T09:16:22.145Z,100503.03
2022-08-04T09:19:02.490Z,100512.25
2022-08-04T09:22:04.167Z,100504.91
2022-08-04T09:24:37.930Z,100503.56
2022-08-04T09:27:18.462Z,100508.91
2022-08-04T09:29:57.262Z,100510.47
2022-08-04T09:32:34.759Z,100501.28
2022-08-04T09:35:21.439Z,100503.34
2022-08-04T09:38:18.458Z,100514.81
2022-08-04T09:41:33.929Z,100507.78
2022-08-04T09:44:49.358Z,100505.53
2022-08-04T09:47:11.475Z,100509.47
2022-08-04T09:50:04.315Z,100496.81
2022-08-04T09:52:54.775Z,100505.44
2022-08-04T09:55:54.490Z,100499.84
2022-08-04T09:58:51.310Z,100501.00
2022-08-04T10:01:24.251Z,100498.63
2022-08-04T10:03:54.987Z,100496.56
2022-08-04T10:06:48.140Z,100498.00
2022-08-04T10:09:52.085Z,100492.59
2022-08-04T10:12:25.207Z,100494.34
2022-08-04T10:15:02.200Z,100483.69
2022-08-04T10:17:43.590Z,100484.97
2022-08-04T10:20:58.147Z,100490.69
2022-08-04T10:24:05.570Z,100485.81
2022-08-04T10:26:57.538Z,100482.78
2022-08-04T10:29:30.772Z,100486.63
2022-08-04T10:32:07.459Z,100483.66
2022-08-04T10:34:44.361Z,100480.91
2022-08-04T10:38:00.208Z,100470.22
2022-08-04T10:40:40.643Z,100478.81
2022-08-04T10:43:35.459Z,100465.84
2022-08-04T10:46:05.268Z,100471.38
2022-08-04T10:49:09.065Z,100465.03
2022-08-04T10:51:57.979Z,100470.81
2022-08-04T10:54:54.037Z,100463.56
2022-08-04T10:57:38.720Z,100463.16
2022-08-04T11:00:20.856Z,100460.31
2022-08-04T11:03:12.622Z,100466.16
2022-08-04T11:06:10.339Z,100463.16
2022-08-04T11:08:50.061Z,100453.78
2022-08-04T11:12:01.649Z,100470.56
2022-08-04T11:14:55.364Z,100464.31
2022-08-04T11:17:45.947Z,100460.03
2022-08-04T11:23:08.727Z,100463.84
2022-08-04T11:26:07.263Z,100462.00
2022-08-04T11:28:58.418Z,100466.88
2022-08-04T11:31:35.455Z,100468.22
2022-08-04T11:34:13.343Z,100469.06
2022-08-04T11:36:45.572Z,100473.38
2022-08-04T11:39:59.003Z,100464.38
2022-08-04T11:42:34.713Z,100477.91
2022-08-04T11:45:07.005Z,100471.81
2022-08-04T11:47:40.380Z,100471.25
2022-08-04T11:50:34.823Z,100465.47
2022-08-04T11:53:02.733Z,100470.41
2022-08-04T11:55:32.362Z,100471.81
2022-08-04T11:58:21.018Z,100471.44
2022-08-04T12:00:59.424Z,100477.28
2022-08-04T12:03:37.525Z,100482.28
2022-08-04T12:06:07.406Z,100486.41
2022-08-04T12:09:10.190Z,100483.00
2022-08-04T12:11:43.156Z,100481.63
2022-08-04T12:14:35.046Z,100483.63
2022-08-04T12:17:04.489Z,100485.78
2022-08-04T12:20:04.349Z,100490.59
2022-08-04T12:22:43.993Z,100490.19
2022-08-04T12:25:16.162Z,100483.50
2022-08-04T12:27:54.786Z,100487.41
2022-08-04T12:30:59.027Z,100484.00
2022-08-04T12:33:24.469Z,100484.09
2022-08-04T12:36:21.548Z,100493.38
2022-08-04T12:39:09.088Z,100486.47
2022-08-04T12:41:45.622Z,100497.22
2022-08-04T12:44:37.573Z,100484.31
2022-08-04T12:47:25.827Z,100504.25
2022-08-04T12:49:59.977Z,100485.06
2022-08-04T12:55:18.281Z,100478.81
2022-08-04T12:57:46.830Z,100488.59
2022-08-04T13:00:26.257Z,100491.31
2022-08-04T13:03:02.009Z,100500.31
2022-08-04T13:05:31.303Z,100499.72
2022-08-04T13:07:59.375Z,100499.72
2022-08-04T13:10:30.412Z,100502.59
2022-08-04T13:12:59.332Z,100500.31
2022-08-04T13:15:27.103Z,100504.72
2022-08-04T13:18:02.569Z,100489.63
2022-08-04T13:20:35.679Z,100507.56
2022-08-04T13:23:09.476Z,100504.31
2022-08-04T13:26:44.849Z,100511.97
2022-08-04T13:28:34.324Z,100495.75
2022-08-04T13:31:02.651Z,100503.16
2022-08-04T13:33:35.423Z,100503.06
2022-08-04T13:36:02.635Z,100502.25
2022-08-04T13:38:31.367Z,100507.03
2022-08-04T13:41:02.158Z,100502.41
2022-08-04T13:44:15.665Z,100498.09
2022-08-04T13:46:33.935Z,100479.69
2022-08-04T13:51:59.130Z,100484.19
2022-08-04T13:54:35.085Z,100478.66
2022-08-04T13:57:11.156Z,100495.16
2022-08-04T13:59:40.498Z,100484.81
2022-08-04T14:02:26.003Z,100491.91
2022-08-04T14:04:57.473Z,100488.97
2022-08-04T14:07:26.617Z,100510.97
2022-08-04T14:10:03.093Z,100511.19
2022-08-04T14:12:38.132Z,100505.84
2022-08-04T14:15:06.353Z,100496.56
2022-08-04T14:17:33.142Z,100501.69
2022-08-04T14:20:01.337Z,100489.09
2022-08-04T14:22:28.100Z,100505.75
2022-08-04T14:25:16.698Z,100507.72
2022-08-04T14:27:49.839Z,100502.78
2022-08-04T14:30:26.374Z,100502.97
2022-08-04T14:32:58.194Z,100505.53
2022-08-04T14:35:26.487Z,100504.78
2022-08-04T14:38:03.427Z,100504.84
2022-08-04T14:40:33.325Z,100501.13
2022-08-04T14:43:00.843Z,100513.75
2022-08-04T14:45:32.045Z,100518.72
2022-08-04T14:47:59.306Z,100512.66
2022-08-04T14:50:46.945Z,100507.53
2022-08-04T14:53:21.918Z,100518.16
2022-08-04T14:55:54.007Z,100520.41
2022-08-04T14:58:35.374Z,100506.81
2022-08-04T15:01:10.234Z,100512.53
2022-08-04T15:03:48.261Z,100517.22
2022-08-04T15:06:22.157Z,100511.56
2022-08-04T15:08:51.796Z,100513.25
2022-08-04T15:11:23.141Z,100515.69
2022-08-04T15:13:54.009Z,100480.75
2022-08-04T15:16:22.371Z,100503.25
2022-08-04T15:18:50.080Z,100495.25
2022-08-04T15:21:18.594Z,100507.75
2022-08-04T15:23:47.102Z,100511.97
2022-08-04T15:26:17.464Z,100508.63
2022-08-04T15:28:51.553Z,100512.34
2022-08-04T15:32:07.163Z,100498.50
2022-08-04T15:34:09.663Z,100500.75
2022-08-04T15:36:57.132Z,100502.09
2022-08-04T15:39:38.836Z,100506.88
2022-08-04T15:42:30.865Z,100501.22
2022-08-04T15:46:41.364Z,100502.78
2022-08-04T15:48:13.798Z,100510.25
2022-08-04T15:51:05.377Z,100510.31
2022-08-04T15:54:03.160Z,100506.91
2022-08-04T15:56:30.635Z,100500.63
2022-08-04T15:58:57.917Z,100500.94
2022-08-04T16:01:25.302Z,100494.13
2022-08-04T16:04:00.334Z,100499.47
2022-08-04T16:06:29.453Z,100501.66
2022-08-04T16:09:05.710Z,100488.59
2022-08-04T16:11:40.102Z,100496.53
2022-08-04T16:14:11.858Z,100497.88
2022-08-04T16:16:59.449Z,100498.50
2022-08-04T16:19:35.396Z,100501.38
2022-08-04T16:22:04.549Z,100471.94
2022-08-04T16:24:42.391Z,100487.56
2022-08-04T16:27:13.270Z,100485.84
2022-08-04T16:29:47.870Z,100494.97
2022-08-04T16:32:16.172Z,100500.19
2022-08-04T16:35:00.948Z,100504.34
2022-08-04T16:37:39.724Z,100496.75
2022-08-04T16:40:34.399Z,100514.38
2022-08-04T16:43:10.784Z,100510.09
2022-08-04T16:45:48.258Z,100512.88
2022-08-04T16:48:16.899Z,100503.41
2022-08-04T16:51:05.219Z,100473.81
2022-08-04T16:54:02.676Z,100522.00
2022-08-04T16:56:34.729Z,100532.44
2022-08-04T16:59:12.554Z,100534.38
2022-08-04T17:01:53.636Z,100521.59
2022-08-04T17:04:32.504Z,100520.38
2022-08-04T17:07:03.745Z,100535.44
2022-08-04T17:09:30.459Z,100527.38
2022-08-04T17:11:57.767Z,100520.97
2022-08-04T17:14:27.268Z,100521.06
2022-08-04T17:16:57.877Z,100523.41
2022-08-04T17:19:26.820Z,100541.84
2022-08-04T17:22:02.207Z,100503.03
2022-08-04T17:24:31.125Z,100529.97
2022-08-04T17:26:58.430Z,100534.03
2022-08-04T17:29:43.578Z,100531.34
2022-08-04T17:32:20.968Z,100515.28
2022-08-04T17:34:50.724Z,100529.16
2022-08-04T17:37:40.211Z,100538.09
2022-08-04T17:40:11.072Z,100540.28
2022-08-04T17:42:39.915Z,100551.34
2022-08-04T17:45:49.425Z,100549.00
2022-08-04T17:47:58.117Z,100550.75
2022-08-04T17:50:31.281Z,100569.84
2022-08-04T17:53:01.756Z,100574.06
2022-08-04T17:55:42.688Z,100571.97
2022-08-04T17:58:21.433Z,100588.41
2022-08-04T18:01:23.562Z,100578.06
2022-08-04T18:03:52.886Z,100572.44
2022-08-04T18:06:28.475Z,100572.16
2022-08-04T18:09:22.171Z,100578.22
2022-08-04T18:11:54.496Z,100580.66
2022-08-04T18:14:25.977Z,100581.28
2022-08-04T18:16:57.150Z,100553.88
2022-08-04T18:19:24.575Z,100558.91
2022-08-04T18:21:59.801Z,100544.59
2022-08-04T18:24:35.058Z,100540.56
2022-08-04T18:27:17.717Z,100570.44
2022-08-04T18:30:14.630Z,100572.69
2022-08-04T18:32:32.980Z,100547.22
2022-08-04T18:35:05.543Z,100571.41
2022-08-04T18:38:06.156Z,100590.88
2022-08-04T18:40:29.955Z,100594.84
2022-08-04T18:43:02.023Z,100583.63
2022-08-04T18:45:33.798Z,100556.28
2022-08-04T18:48:02.139Z,100587.63
2022-08-04T18:51:01.121Z,100603.25
2022-08-04T18:53:17.227Z,100610.88
2022-08-04T18:55:56.828Z,100613.06
2022-08-04T18:58:27.372Z,100583.56
2022-08-04T19:00:55.816Z,100611.97
2022-08-04T19:03:23.412Z,100620.19
2022-08-04T19:05:51.517Z,100622.34
2022-08-04T19:08:32.846Z,100627.38
2022-08-04T19:11:37.184Z,100640.66
2022-08-04T19:13:54.789Z,100648.94
2022-08-04T19:16:28.860Z,100653.50
2022-08-04T19:18:56.499Z,100649.19
2022-08-04T19:21:59.989Z,100643.59
2022-08-04T19:24:32.128Z,100657.28
2022-08-04T19:26:56.868Z,100669.78
2022-08-04T19:29:23.590Z,100660.94
2022-08-04T19:31:50.248Z,100660.88
2022-08-04T19:34:33.274Z,100661.47
2022-08-04T19:37:01.962Z,100658.94
2022-08-04T19:39:31.196Z,100648.44
2022-08-04T19:42:04.595Z,100640.38
2022-08-04T19:44:32.958Z,100641.56
2022-08-04T19:47:00.756Z,100636.38
2022-08-04T19:50:04.744Z,100635.81
2022-08-04T19:52:15.394Z,100638.78
2022-08-04T19:55:01.267Z,100636.66
2022-08-04T19:57:41.476Z,100628.47
2022-08-04T20:00:10.083Z,100616.28
2022-08-04T20:02:37.135Z,100624.31
2022-08-04T20:05:11.209Z,100616.13
2022-08-04T20:07:38.048Z,100611.38
2022-08-04T20:10:06.830Z,100605.47
2022-08-04T20:12:34.426Z,100603.25
2022-08-04T20:15:10.915Z,100610.38
2022-08-04T20:18:07.392Z,100601.81
2022-08-04T20:20:26.415Z,100605.22
2022-08-04T20:22:53.450Z,100608.34
2022-08-04T20:28:07.092Z,100609.53
2022-08-04T20:30:33.692Z,100617.50
2022-08-04T20:33:04.366Z,100629.09
2022-08-04T20:36:03.284Z,100632.91
2022-08-04T20:38:32.654Z,100640.72
2022-08-04T20:41:01.344Z,100659.13
2022-08-04T20:43:28.159Z,100651.78
2022-08-04T20:45:59.155Z,100661.25
2022-08-04T20:48:33.526Z,100645.59
2022-08-04T20:51:00.580Z,100670.09
2022-08-04T20:53:46.637Z,100670.25
2022-08-04T20:56:19.071Z,100687.16
2022-08-04T20:58:57.750Z,100670.50
2022-08-04T21:01:29.435Z,100683.81
2022-08-04T21:04:27.878Z,100680.09
2022-08-04T21:06:56.252Z,100686.22
2022-08-04T21:09:37.253Z,100684.81
2022-08-04T21:12:09.099Z,100685.19
2022-08-04T21:14:36.037Z,100687.78
2022-08-04T21:17:03.985Z,100694.28
2022-08-04T21:19:36.743Z,100684.56
2022-08-04T21:22:06.914Z,100697.00
2022-08-04T21:24:37.729Z,100698.31
2022-08-04T21:27:09.687Z,100700.28
2022-08-04T21:29:36.817Z,100701.09
2022-08-04T21:32:05.909Z,100699.50
2022-08-04T21:34:38.995Z,100706.41
2022-08-04T21:37:09.387Z,100711.50
2022-08-04T21:39:58.779Z,100709.72
2022-08-04T21:42:29.186Z,100707.97
2022-08-04T21:44:57.496Z,100705.19
2022-08-04T21:47:24.148Z,100707.44
2022-08-04T21:49:56.430Z,100703.88
2022-08-04T21:52:24.458Z,100701.16
2022-08-04T21:54:54.192Z,100700.91
2022-08-04T21:57:24.727Z,100704.78
2022-08-04T21:59:51.586Z,100702.97
2022-08-04T22:02:18.145Z,100710.31
2022-08-04T22:04:44.796Z,100706.69
2022-08-04T22:07:16.333Z,100709.72
2022-08-04T22:09:56.190Z,100716.66
2022-08-04T22:12:27.040Z,100709.41
2022-08-04T22:14:57.714Z,100712.47
2022-08-04T22:17:29.413Z,100723.38
2022-08-04T22:20:02.395Z,100723.75
2022-08-04T22:22:29.999Z,100732.47
2022-08-04T22:25:01.186Z,100735.44
2022-08-04T22:27:47.829Z,100748.25
2022-08-04T22:30:22.965Z,100742.59
2022-08-04T22:32:50.361Z,100742.34
2022-08-04T22:35:35.611Z,100754.91
2022-08-04T22:38:07.743Z,100758.81
2022-08-04T22:40:47.673Z,100755.28
2022-08-04T22:43:31.196Z,100768.81
2022-08-04T22:46:01.829Z,100780.78
2022-08-04T22:48:31.883Z,100765.91
2022-08-04T22:50:58.877Z,100775.50
2022-08-04T22:53:25.561Z,100783.78
2022-08-04T22:56:07.693Z,100797.84
2022-08-04T22:58:45.060Z,100799.59
2022-08-04T23:01:15.038Z,100793.47
2022-08-04T23:03:42.087Z,100792.09
2022-08-04T23:06:17.768Z,100796.56
2022-08-04T23:08:50.995Z,100802.75
2022-08-04T23:11:17.704Z,100802.72
2022-08-04T23:13:44.281Z,100785.31
2022-08-04T23:16:11.132Z,100787.91
2022-08-04T23:18:41.792Z,100794.50
2022-08-04T23:21:10.195Z,100796.00
2022-08-04T23:23:45.230Z,100777.13
2022-08-04T23:26:15.773Z,100780.00
2022-08-04T23:28:43.329Z,100773.31
2022-08-04T23:31:10.302Z,100776.66
2022-08-04T23:33:50.603Z,100780.69
2022-08-04T23:36:19.470Z,100776.16
2022-08-04T23:38:59.838Z,100792.34
2022-08-04T23:41:53.739Z,100775.84
2022-08-04T23:44:13.343Z,100768.09
2022-08-04T23:46:50.078Z,100770.13
2022-08-04T23:49:19.847Z,100772.63
2022-08-04T23:51:46.370Z,100765.13
2022-08-04T23:54:16.201Z,100758.63
2022-08-04T23:56:52.488Z,100748.41
2022-08-04T23:59:50.911Z,100752.16
